Create Tblcommutelog Verified Points Advance Search
| # | Trip ID | Id Commuter | Trip Date | Trip Num | Current Lat | Current Lng | Delta Distance | Current Time | Activity | Activity Confidence | Current Speed | |
|---|---|---|---|---|---|---|---|---|---|---|---|---|
| 72821 | 251111_787783_0_1613 | 787783 | (not set) | (not set) | 38.751630450148 | -77.184663349413 | 14.4123 | 2025-11-11 16:34:19 | in_vehicle | 100 | 15.454147183206 | |
| 72822 | 251111_786896_16514849_1621 | 786896 | (not set) | (not set) | 38.920459275823 | -77.233881433545 | 0.5122 | 2025-11-11 16:34:21 | still | 33 | 0.013411177769632 | |
| 72823 | 251111_786896_16514849_1621 | 786896 | (not set) | (not set) | 38.920459275823 | -77.233881433545 | 0.5122 | 2025-11-11 16:34:21 | still | 33 | 0.013411177769632 | |
| 72824 | 251111_783553_16652569_1629 | 783553 | (not set) | (not set) | 38.901474756707 | -77.039658759327 | 0.2413 | 2025-11-11 16:34:21 | on_foot | 100 | 0.46939122193711 | |
| 72825 | 251111_739141_16658092_1619 | 739141 | (not set) | (not set) | 38.750016283333 | -77.185129683333 | 14.3206 | 2025-11-11 16:34:25 | unknown | 100 | 15.914597619963 | |
| 72826 | 251111_790008_16658962_1609 | 790008 | (not set) | (not set) | 39.107710816667 | -76.931209616667 | 15.1446 | 2025-11-11 16:34:29 | in_vehicle | 100 | 11.220685400592 | |
| 72827 | 251111_765311_16652720_1611 | 765311 | (not set) | (not set) | 39.301604170528 | -76.615976291976 | 1.5457 | 2025-11-11 16:34:29 | in_vehicle | 100 | -0.44703925898772 | |
| 72828 | 251111_765311_16652720_1611 | 765311 | (not set) | (not set) | 39.301604170528 | -76.615976291976 | 1.7799 | 2025-11-11 16:34:29 | in_vehicle | 100 | -0.44703925898772 | |
| 72829 | 251111_787783_0_1613 | 787783 | (not set) | (not set) | 38.748143193977 | -77.185841318698 | 14.6612 | 2025-11-11 16:34:30 | in_vehicle | 100 | 16.473396693698 | |
| 72830 | 251111_785007_16653066_1601 | 785007 | (not set) | (not set) | 38.886974028955 | -77.095635124102 | 0 | 2025-11-11 16:34:30 | still | 33 | -0.44703925898772 | |
| 72831 | 251111_785007_16653066_1601 | 785007 | (not set) | (not set) | 38.886974028955 | -77.095635124102 | 0 | 2025-11-11 16:34:30 | still | 33 | -0.44703925898772 | |
| 72832 | 251111_788762_16657472_1613 | 788762 | (not set) | (not set) | 38.990769347015 | -76.906884590702 | 2.7488 | 2025-11-11 16:34:33 | on_bicycle | 100 | 3.460083864565 | |
| 72833 | 251111_785264_16653381_1608 | 785264 | (not set) | (not set) | 38.887023150997 | -77.095351760772 | 0.6815 | 2025-11-11 16:34:33 | in_vehicle | 100 | -0.44703925898772 | |
| 72834 | 251111_788762_16657472_1613 | 788762 | (not set) | (not set) | 38.990769347015 | -76.906884590702 | 2.7488 | 2025-11-11 16:34:33 | on_bicycle | 100 | 3.460083864565 | |
| 72835 | 251111_788762_16657472_1613 | 788762 | (not set) | (not set) | 38.990769347015 | -76.906884590702 | 2.7488 | 2025-11-11 16:34:33 | on_bicycle | 100 | 3.460083864565 | |
| 72836 | 251111_783457_16651195_1627 | 783457 | (not set) | (not set) | 38.9335036 | -76.9969153 | 0.1095 | 2025-11-11 16:34:28 | walking | 100 | 0.71526281438036 | |
| 72837 | 251111_785264_16653381_1608 | 785264 | (not set) | (not set) | 38.887033324083 | -77.095331658445 | 0.6815 | 2025-11-11 16:34:34 | in_vehicle | 100 | -0.44703925898772 | |
| 72838 | 251111_765311_16652720_1611 | 765311 | (not set) | (not set) | 39.302058331705 | -76.615974912491 | 1.8112 | 2025-11-11 16:34:35 | in_vehicle | 100 | 2.4229527837135 | |
| 72839 | 251111_739141_16658092_1619 | 739141 | (not set) | (not set) | 38.74636245 | -77.186565616667 | 14.5843 | 2025-11-11 16:34:36 | unknown | 100 | 16.491278264057 | |
| 72840 | 251111_786896_16514849_1621 | 786896 | (not set) | (not set) | 38.920506463498 | -77.23391246363 | 0.5122 | 2025-11-11 16:34:36 | on_foot | 100 | 0.23246041467362 |